sensor_id;sensor_type;location;lat;lon;timestamp;pressure;altitude;pressure_sealevel;temperature;humidity
59608;BME280;45426;44.726;10.390;2023-11-19T00:01:34;101185.59;;;6.36;100.00
59608;BME280;45426;44.726;10.390;2023-11-19T00:04:00;101184.56;;;7.24;100.00
59608;BME280;45426;44.726;10.390;2023-11-19T00:06:25;101172.84;;;7.33;100.00
59608;BME280;45426;44.726;10.390;2023-11-19T00:08:51;101174.50;;;6.62;100.00
59608;BME280;45426;44.726;10.390;2023-11-19T00:11:17;101166.88;;;6.69;100.00
59608;BME280;45426;44.726;10.390;2023-11-19T00:13:42;101163.56;;;6.53;100.00
59608;BME280;45426;44.726;10.390;2023-11-19T00:16:08;101166.31;;;6.72;100.00
59608;BME280;45426;44.726;10.390;2023-11-19T00:18:35;101168.22;;;6.48;100.00
59608;BME280;45426;44.726;10.390;2023-11-19T00:21:01;101171.69;;;6.19;100.00
59608;BME280;45426;44.726;10.390;2023-11-19T00:23:27;101184.41;;;6.48;100.00
59608;BME280;45426;44.726;10.390;2023-11-19T00:25:53;101191.09;;;7.23;100.00
59608;BME280;45426;44.726;10.390;2023-11-19T00:28:18;101196.00;;;7.39;100.00
59608;BME280;45426;44.726;10.390;2023-11-19T00:30:44;101201.50;;;7.10;100.00
59608;BME280;45426;44.726;10.390;2023-11-19T00:33:09;101201.97;;;7.36;100.00
59608;BME280;45426;44.726;10.390;2023-11-19T00:35:35;101200.56;;;6.53;100.00
59608;BME280;45426;44.726;10.390;2023-11-19T00:38:01;101203.00;;;6.49;100.00
59608;BME280;45426;44.726;10.390;2023-11-19T00:40:27;101199.44;;;5.95;100.00
59608;BME280;45426;44.726;10.390;2023-11-19T00:42:52;101200.75;;;5.58;100.00
59608;BME280;45426;44.726;10.390;2023-11-19T00:45:17;101211.94;;;5.76;100.00
59608;BME280;45426;44.726;10.390;2023-11-19T00:47:43;101196.59;;;6.11;100.00
59608;BME280;45426;44.726;10.390;2023-11-19T00:50:09;101191.50;;;6.38;100.00
59608;BME280;45426;44.726;10.390;2023-11-19T00:52:35;101194.41;;;6.71;100.00
59608;BME280;45426;44.726;10.390;2023-11-19T00:55:01;101191.69;;;6.18;100.00
59608;BME280;45426;44.726;10.390;2023-11-19T00:57:26;101189.81;;;5.79;100.00
59608;BME280;45426;44.726;10.390;2023-11-19T00:59:52;101192.06;;;6.35;100.00
59608;BME280;45426;44.726;10.390;2023-11-19T01:02:17;101181.75;;;6.43;100.00
59608;BME280;45426;44.726;10.390;2023-11-19T01:04:43;101190.31;;;5.86;100.00
59608;BME280;45426;44.726;10.390;2023-11-19T01:07:09;101199.84;;;5.68;100.00
59608;BME280;45426;44.726;10.390;2023-11-19T01:09:38;101180.69;;;5.75;100.00
59608;BME280;45426;44.726;10.390;2023-11-19T01:12:03;101196.81;;;6.19;100.00
59608;BME280;45426;44.726;10.390;2023-11-19T01:14:29;101186.00;;;6.49;100.00
59608;BME280;45426;44.726;10.390;2023-11-19T01:16:55;101179.44;;;6.31;100.00
59608;BME280;45426;44.726;10.390;2023-11-19T01:19:24;101184.97;;;6.45;100.00
59608;BME280;45426;44.726;10.390;2023-11-19T01:21:53;101183.38;;;6.68;100.00
59608;BME280;45426;44.726;10.390;2023-11-19T01:24:18;101178.72;;;6.20;100.00
59608;BME280;45426;44.726;10.390;2023-11-19T01:26:44;101174.88;;;6.55;100.00
59608;BME280;45426;44.726;10.390;2023-11-19T01:29:14;101170.81;;;5.99;100.00
59608;BME280;45426;44.726;10.390;2023-11-19T01:31:42;101171.22;;;5.38;100.00
59608;BME280;45426;44.726;10.390;2023-11-19T01:34:08;101170.09;;;5.44;100.00
59608;BME280;45426;44.726;10.390;2023-11-19T01:36:34;101167.97;;;5.41;100.00
59608;BME280;45426;44.726;10.390;2023-11-19T01:38:59;101150.03;;;5.60;100.00
59608;BME280;45426;44.726;10.390;2023-11-19T01:41:25;101156.38;;;5.80;100.00
59608;BME280;45426;44.726;10.390;2023-11-19T01:43:50;101163.88;;;6.47;100.00
59608;BME280;45426;44.726;10.390;2023-11-19T01:46:16;101145.00;;;6.47;100.00
59608;BME280;45426;44.726;10.390;2023-11-19T01:48:45;101148.75;;;5.53;100.00
59608;BME280;45426;44.726;10.390;2023-11-19T01:51:12;101144.50;;;5.81;100.00
59608;BME280;45426;44.726;10.390;2023-11-19T01:53:38;101131.97;;;6.25;100.00
59608;BME280;45426;44.726;10.390;2023-11-19T01:56:07;101133.91;;;5.90;100.00
59608;BME280;45426;44.726;10.390;2023-11-19T01:58:38;101129.41;;;5.80;100.00
59608;BME280;45426;44.726;10.390;2023-11-19T02:01:05;101123.81;;;6.06;100.00
59608;BME280;45426;44.726;10.390;2023-11-19T02:03:32;101129.81;;;5.23;100.00
59608;BME280;45426;44.726;10.390;2023-11-19T02:05:59;101121.16;;;5.27;100.00
59608;BME280;45426;44.726;10.390;2023-11-19T02:08:25;101114.09;;;5.41;100.00
59608;BME280;45426;44.726;10.390;2023-11-19T02:10:51;101117.97;;;5.93;100.00
59608;BME280;45426;44.726;10.390;2023-11-19T02:13:20;101120.75;;;5.83;100.00
59608;BME280;45426;44.726;10.390;2023-11-19T02:15:45;101123.72;;;5.47;100.00
59608;BME280;45426;44.726;10.390;2023-11-19T02:18:18;101130.03;;;6.06;100.00
59608;BME280;45426;44.726;10.390;2023-11-19T02:20:44;101126.75;;;5.75;100.00
59608;BME280;45426;44.726;10.390;2023-11-19T02:23:09;101132.13;;;5.40;100.00
59608;BME280;45426;44.726;10.390;2023-11-19T02:25:35;101119.22;;;4.93;100.00
59608;BME280;45426;44.726;10.390;2023-11-19T02:28:02;101116.50;;;5.42;100.00
59608;BME280;45426;44.726;10.390;2023-11-19T02:30:28;101103.41;;;5.25;100.00
59608;BME280;45426;44.726;10.390;2023-11-19T02:33:00;101102.44;;;5.06;100.00
59608;BME280;45426;44.726;10.390;2023-11-19T02:35:31;101087.81;;;5.17;100.00
59608;BME280;45426;44.726;10.390;2023-11-19T02:37:57;101081.78;;;4.91;100.00
59608;BME280;45426;44.726;10.390;2023-11-19T02:40:24;101073.44;;;4.93;100.00
59608;BME280;45426;44.726;10.390;2023-11-19T02:42:50;101077.66;;;5.43;100.00
59608;BME280;45426;44.726;10.390;2023-11-19T02:45:16;101064.47;;;5.08;100.00
59608;BME280;45426;44.726;10.390;2023-11-19T02:47:41;101068.66;;;4.84;100.00
59608;BME280;45426;44.726;10.390;2023-11-19T02:50:08;101063.72;;;4.92;100.00
59608;BME280;45426;44.726;10.390;2023-11-19T02:52:44;101055.72;;;4.86;100.00
59608;BME280;45426;44.726;10.390;2023-11-19T02:55:11;101050.25;;;4.97;100.00
59608;BME280;45426;44.726;10.390;2023-11-19T02:57:40;101050.09;;;5.17;100.00
59608;BME280;45426;44.726;10.390;2023-11-19T03:00:16;101044.47;;;5.14;100.00
59608;BME280;45426;44.726;10.390;2023-11-19T03:02:43;101045.13;;;5.35;100.00
59608;BME280;45426;44.726;10.390;2023-11-19T03:05:15;101037.34;;;5.33;100.00
59608;BME280;45426;44.726;10.390;2023-11-19T03:07:42;101040.59;;;5.30;100.00
59608;BME280;45426;44.726;10.390;2023-11-19T03:10:11;101048.81;;;5.10;100.00
59608;BME280;45426;44.726;10.390;2023-11-19T03:12:40;101041.91;;;5.33;100.00
59608;BME280;45426;44.726;10.390;2023-11-19T03:15:06;101036.25;;;5.34;100.00
59608;BME280;45426;44.726;10.390;2023-11-19T03:17:32;101044.59;;;5.67;100.00
59608;BME280;45426;44.726;10.390;2023-11-19T03:20:00;101040.09;;;5.87;100.00
59608;BME280;45426;44.726;10.390;2023-11-19T03:22:26;101033.41;;;5.20;100.00
59608;BME280;45426;44.726;10.390;2023-11-19T03:24:51;101031.28;;;5.12;100.00
59608;BME280;45426;44.726;10.390;2023-11-19T03:27:17;101026.03;;;4.92;100.00
59608;BME280;45426;44.726;10.390;2023-11-19T03:29:42;101024.69;;;5.29;100.00
59608;BME280;45426;44.726;10.390;2023-11-19T03:32:08;101028.53;;;5.22;100.00
59608;BME280;45426;44.726;10.390;2023-11-19T03:34:34;101034.38;;;5.93;100.00
59608;BME280;45426;44.726;10.390;2023-11-19T03:36:59;101031.63;;;5.40;100.00
59608;BME280;45426;44.726;10.390;2023-11-19T03:39:25;101034.59;;;5.04;100.00
59608;BME280;45426;44.726;10.390;2023-11-19T03:41:50;101030.88;;;4.95;100.00
59608;BME280;45426;44.726;10.390;2023-11-19T03:44:16;101035.97;;;5.01;100.00
59608;BME280;45426;44.726;10.390;2023-11-19T03:46:42;101039.31;;;5.22;100.00
59608;BME280;45426;44.726;10.390;2023-11-19T03:49:07;101032.91;;;5.13;100.00
59608;BME280;45426;44.726;10.390;2023-11-19T03:51:33;101033.06;;;5.27;100.00
59608;BME280;45426;44.726;10.390;2023-11-19T03:54:00;101031.53;;;5.16;100.00
59608;BME280;45426;44.726;10.390;2023-11-19T03:56:25;101039.13;;;5.72;100.00
59608;BME280;45426;44.726;10.390;2023-11-19T03:58:52;101039.63;;;5.50;100.00
59608;BME280;45426;44.726;10.390;2023-11-19T04:01:18;101045.72;;;5.61;100.00
59608;BME280;45426;44.726;10.390;2023-11-19T04:03:43;101051.06;;;5.37;100.00
59608;BME280;45426;44.726;10.390;2023-11-19T04:06:09;101039.50;;;4.92;100.00
59608;BME280;45426;44.726;10.390;2023-11-19T04:08:35;101042.72;;;5.33;100.00
59608;BME280;45426;44.726;10.390;2023-11-19T04:11:04;101036.06;;;5.25;100.00
59608;BME280;45426;44.726;10.390;2023-11-19T04:13:29;101043.66;;;5.18;100.00
59608;BME280;45426;44.726;10.390;2023-11-19T04:15:55;101044.13;;;5.89;100.00
59608;BME280;45426;44.726;10.390;2023-11-19T04:18:20;101042.66;;;6.02;100.00
59608;BME280;45426;44.726;10.390;2023-11-19T04:20:45;101032.81;;;5.58;100.00
59608;BME280;45426;44.726;10.390;2023-11-19T04:23:11;101040.91;;;5.58;100.00
59608;BME280;45426;44.726;10.390;2023-11-19T04:25:36;101044.44;;;5.19;100.00
59608;BME280;45426;44.726;10.390;2023-11-19T04:28:02;101043.69;;;5.13;100.00
59608;BME280;45426;44.726;10.390;2023-11-19T04:30:28;101043.91;;;5.51;100.00
59608;BME280;45426;44.726;10.390;2023-11-19T04:32:53;101038.03;;;5.10;100.00
59608;BME280;45426;44.726;10.390;2023-11-19T04:35:19;101035.94;;;5.70;100.00
59608;BME280;45426;44.726;10.390;2023-11-19T04:37:45;101030.63;;;5.89;100.00
59608;BME280;45426;44.726;10.390;2023-11-19T04:40:11;101035.31;;;6.08;100.00
59608;BME280;45426;44.726;10.390;2023-11-19T04:42:37;101035.50;;;5.87;100.00
59608;BME280;45426;44.726;10.390;2023-11-19T04:45:06;101037.56;;;6.00;100.00
59608;BME280;45426;44.726;10.390;2023-11-19T04:47:33;101042.22;;;5.60;100.00
59608;BME280;45426;44.726;10.390;2023-11-19T04:49:58;101033.72;;;5.48;100.00
59608;BME280;45426;44.726;10.390;2023-11-19T04:52:24;101024.56;;;5.44;100.00
59608;BME280;45426;44.726;10.390;2023-11-19T04:54:49;101027.19;;;5.54;100.00
59608;BME280;45426;44.726;10.390;2023-11-19T04:57:15;101014.19;;;6.15;100.00
59608;BME280;45426;44.726;10.390;2023-11-19T04:59:40;101005.53;;;5.89;100.00
59608;BME280;45426;44.726;10.390;2023-11-19T05:02:06;101002.41;;;5.52;100.00
59608;BME280;45426;44.726;10.390;2023-11-19T05:04:32;101005.22;;;5.02;100.00
59608;BME280;45426;44.726;10.390;2023-11-19T05:06:57;101004.94;;;5.09;100.00
59608;BME280;45426;44.726;10.390;2023-11-19T05:09:22;101004.34;;;5.12;100.00
59608;BME280;45426;44.726;10.390;2023-11-19T05:11:48;101000.56;;;5.48;100.00
59608;BME280;45426;44.726;10.390;2023-11-19T05:14:13;100994.69;;;5.40;100.00
59608;BME280;45426;44.726;10.390;2023-11-19T05:16:39;100983.78;;;4.92;100.00
59608;BME280;45426;44.726;10.390;2023-11-19T05:19:05;100982.09;;;5.01;100.00
59608;BME280;45426;44.726;10.390;2023-11-19T05:21:30;100991.91;;;4.82;100.00
59608;BME280;45426;44.726;10.390;2023-11-19T05:23:56;100981.22;;;4.72;100.00
59608;BME280;45426;44.726;10.390;2023-11-19T05:26:23;100975.44;;;4.89;100.00
59608;BME280;45426;44.726;10.390;2023-11-19T05:28:49;100971.13;;;4.93;100.00
59608;BME280;45426;44.726;10.390;2023-11-19T05:31:16;100963.81;;;4.59;100.00
59608;BME280;45426;44.726;10.390;2023-11-19T05:33:42;100962.50;;;4.91;100.00
59608;BME280;45426;44.726;10.390;2023-11-19T05:36:07;100967.78;;;5.06;100.00
59608;BME280;45426;44.726;10.390;2023-11-19T05:38:34;100969.28;;;5.17;100.00
59608;BME280;45426;44.726;10.390;2023-11-19T05:40:59;100973.19;;;5.01;100.00
59608;BME280;45426;44.726;10.390;2023-11-19T05:43:25;100970.44;;;5.11;100.00
59608;BME280;45426;44.726;10.390;2023-11-19T05:45:50;100973.00;;;5.27;100.00
59608;BME280;45426;44.726;10.390;2023-11-19T05:48:16;100965.97;;;4.96;100.00
59608;BME280;45426;44.726;10.390;2023-11-19T05:50:42;100965.59;;;5.08;100.00
59608;BME280;45426;44.726;10.390;2023-11-19T05:53:07;100972.66;;;5.62;100.00
59608;BME280;45426;44.726;10.390;2023-11-19T05:55:36;100964.72;;;5.76;100.00
59608;BME280;45426;44.726;10.390;2023-11-19T05:58:10;100950.13;;;4.90;100.00
59608;BME280;45426;44.726;10.390;2023-11-19T06:00:37;100963.34;;;4.86;100.00
59608;BME280;45426;44.726;10.390;2023-11-19T06:03:03;100951.16;;;5.28;100.00
59608;BME280;45426;44.726;10.390;2023-11-19T06:05:29;100955.97;;;5.02;100.00
59608;BME280;45426;44.726;10.390;2023-11-19T06:07:54;100946.63;;;4.89;100.00
59608;BME280;45426;44.726;10.390;2023-11-19T06:10:20;100943.81;;;4.70;100.00
59608;BME280;45426;44.726;10.390;2023-11-19T06:12:46;100940.97;;;4.51;100.00
59608;BME280;45426;44.726;10.390;2023-11-19T06:15:11;100947.38;;;4.11;100.00
59608;BME280;45426;44.726;10.390;2023-11-19T06:17:36;100955.16;;;4.62;100.00
59608;BME280;45426;44.726;10.390;2023-11-19T06:20:04;100952.09;;;5.13;100.00
59608;BME280;45426;44.726;10.390;2023-11-19T06:22:30;100962.47;;;4.96;100.00
59608;BME280;45426;44.726;10.390;2023-11-19T06:24:55;100960.41;;;4.82;100.00
59608;BME280;45426;44.726;10.390;2023-11-19T06:27:21;100958.44;;;5.28;100.00
59608;BME280;45426;44.726;10.390;2023-11-19T06:29:47;100967.16;;;5.14;100.00
59608;BME280;45426;44.726;10.390;2023-11-19T06:32:13;100970.63;;;5.20;100.00
59608;BME280;45426;44.726;10.390;2023-11-19T06:34:38;100974.91;;;5.26;100.00
59608;BME280;45426;44.726;10.390;2023-11-19T06:37:04;100975.31;;;5.09;100.00
59608;BME280;45426;44.726;10.390;2023-11-19T06:39:30;100963.44;;;5.10;100.00
59608;BME280;45426;44.726;10.390;2023-11-19T06:41:55;100958.00;;;5.15;100.00
59608;BME280;45426;44.726;10.390;2023-11-19T06:44:20;100956.84;;;5.56;100.00
59608;BME280;45426;44.726;10.390;2023-11-19T06:46:48;100967.34;;;5.57;100.00
59608;BME280;45426;44.726;10.390;2023-11-19T06:49:13;100971.59;;;5.00;100.00
59608;BME280;45426;44.726;10.390;2023-11-19T06:51:42;100961.22;;;5.17;100.00
59608;BME280;45426;44.726;10.390;2023-11-19T06:54:09;100963.22;;;5.65;100.00
59608;BME280;45426;44.726;10.390;2023-11-19T06:56:34;100964.41;;;6.45;100.00
59608;BME280;45426;44.726;10.390;2023-11-19T06:58:59;100957.31;;;6.30;100.00
59608;BME280;45426;44.726;10.390;2023-11-19T07:01:25;100957.78;;;6.37;100.00
59608;BME280;45426;44.726;10.390;2023-11-19T07:03:50;100952.41;;;6.75;100.00
59608;BME280;45426;44.726;10.390;2023-11-19T07:06:16;100968.06;;;6.35;100.00
59608;BME280;45426;44.726;10.390;2023-11-19T07:08:42;100969.84;;;7.63;100.00
59608;BME280;45426;44.726;10.390;2023-11-19T07:11:10;100969.69;;;7.73;100.00
59608;BME280;45426;44.726;10.390;2023-11-19T07:13:37;100975.91;;;8.01;100.00
59608;BME280;45426;44.726;10.390;2023-11-19T07:16:03;100974.06;;;8.52;100.00
59608;BME280;45426;44.726;10.390;2023-11-19T07:18:29;100974.88;;;8.11;100.00
59608;BME280;45426;44.726;10.390;2023-11-19T07:20:54;100980.06;;;10.02;100.00
59608;BME280;45426;44.726;10.390;2023-11-19T07:23:20;100982.78;;;9.30;100.00
59608;BME280;45426;44.726;10.390;2023-11-19T07:25:47;100976.25;;;9.09;100.00
59608;BME280;45426;44.726;10.390;2023-11-19T07:28:15;100978.47;;;10.93;100.00
59608;BME280;45426;44.726;10.390;2023-11-19T07:30:42;100984.03;;;11.79;100.00
59608;BME280;45426;44.726;10.390;2023-11-19T07:33:07;100981.97;;;10.94;100.00
59608;BME280;45426;44.726;10.390;2023-11-19T07:35:33;100988.84;;;11.26;100.00
59608;BME280;45426;44.726;10.390;2023-11-19T07:37:59;101003.75;;;10.19;100.00
59608;BME280;45426;44.726;10.390;2023-11-19T07:40:25;100995.38;;;11.34;100.00
59608;BME280;45426;44.726;10.390;2023-11-19T07:42:50;100994.94;;;10.88;100.00
59608;BME280;45426;44.726;10.390;2023-11-19T07:45:16;100985.94;;;11.40;100.00
59608;BME280;45426;44.726;10.390;2023-11-19T07:47:42;100983.03;;;11.45;100.00
59608;BME280;45426;44.726;10.390;2023-11-19T07:50:10;100991.72;;;10.77;100.00
59608;BME280;45426;44.726;10.390;2023-11-19T07:52:37;100988.88;;;12.41;100.00
59608;BME280;45426;44.726;10.390;2023-11-19T07:55:02;100981.38;;;15.43;100.00
59608;BME280;45426;44.726;10.390;2023-11-19T07:57:28;100987.59;;;18.86;100.00
59608;BME280;45426;44.726;10.390;2023-11-19T07:59:59;100992.88;;;15.77;100.00
59608;BME280;45426;44.726;10.390;2023-11-19T08:02:26;100998.69;;;13.18;100.00
59608;BME280;45426;44.726;10.390;2023-11-19T08:04:52;101005.88;;;12.09;100.00
59608;BME280;45426;44.726;10.390;2023-11-19T08:07:21;101007.72;;;12.26;100.00
59608;BME280;45426;44.726;10.390;2023-11-19T08:09:47;101008.09;;;11.68;100.00
59608;BME280;45426;44.726;10.390;2023-11-19T08:12:13;101005.59;;;11.54;100.00
59608;BME280;45426;44.726;10.390;2023-11-19T08:14:41;101005.66;;;13.61;100.00
59608;BME280;45426;44.726;10.390;2023-11-19T08:17:07;101014.78;;;13.77;100.00
59608;BME280;45426;44.726;10.390;2023-11-19T08:19:32;101012.78;;;13.20;100.00
59608;BME280;45426;44.726;10.390;2023-11-19T08:21:57;101018.34;;;13.45;100.00
59608;BME280;45426;44.726;10.390;2023-11-19T08:24:23;101002.19;;;12.85;100.00
59608;BME280;45426;44.726;10.390;2023-11-19T08:26:48;100998.59;;;11.92;100.00
59608;BME280;45426;44.726;10.390;2023-11-19T08:29:14;101003.72;;;13.28;100.00
59608;BME280;45426;44.726;10.390;2023-11-19T08:31:39;101008.19;;;13.33;100.00
59608;BME280;45426;44.726;10.390;2023-11-19T08:34:05;100998.50;;;13.56;100.00
59608;BME280;45426;44.726;10.390;2023-11-19T08:36:34;101002.44;;;13.13;100.00
59608;BME280;45426;44.726;10.390;2023-11-19T08:38:59;101010.78;;;14.49;100.00
59608;BME280;45426;44.726;10.390;2023-11-19T08:41:24;101001.13;;;15.20;100.00
59608;BME280;45426;44.726;10.390;2023-11-19T08:43:50;101003.50;;;14.65;100.00
59608;BME280;45426;44.726;10.390;2023-11-19T08:46:17;100999.66;;;14.17;100.00
59608;BME280;45426;44.726;10.390;2023-11-19T08:48:42;100991.06;;;14.68;100.00
59608;BME280;45426;44.726;10.390;2023-11-19T08:51:07;100979.03;;;14.32;100.00
59608;BME280;45426;44.726;10.390;2023-11-19T08:53:33;100987.09;;;14.65;100.00
59608;BME280;45426;44.726;10.390;2023-11-19T08:56:02;100990.81;;;14.85;100.00
59608;BME280;45426;44.726;10.390;2023-11-19T08:58:29;100976.41;;;14.88;100.00
59608;BME280;45426;44.726;10.390;2023-11-19T09:00:56;100983.63;;;14.03;100.00
59608;BME280;45426;44.726;10.390;2023-11-19T09:03:21;100981.63;;;14.53;100.00
59608;BME280;45426;44.726;10.390;2023-11-19T09:05:46;100979.50;;;15.15;100.00
59608;BME280;45426;44.726;10.390;2023-11-19T09:08:12;100991.53;;;15.26;100.00
59608;BME280;45426;44.726;10.390;2023-11-19T09:10:37;100995.66;;;15.96;100.00
59608;BME280;45426;44.726;10.390;2023-11-19T09:13:03;101000.31;;;16.63;100.00
59608;BME280;45426;44.726;10.390;2023-11-19T09:15:29;101006.47;;;17.15;100.00
59608;BME280;45426;44.726;10.390;2023-11-19T09:17:54;101001.69;;;19.14;100.00
59608;BME280;45426;44.726;10.390;2023-11-19T09:20:20;101008.63;;;16.31;100.00
59608;BME280;45426;44.726;10.390;2023-11-19T09:22:45;101003.84;;;17.64;100.00
59608;BME280;45426;44.726;10.390;2023-11-19T09:25:11;101007.63;;;17.79;100.00
59608;BME280;45426;44.726;10.390;2023-11-19T09:27:37;101014.31;;;19.15;100.00
59608;BME280;45426;44.726;10.390;2023-11-19T09:30:03;101009.13;;;19.89;100.00
59608;BME280;45426;44.726;10.390;2023-11-19T09:32:29;100995.31;;;22.15;100.00
59608;BME280;45426;44.726;10.390;2023-11-19T09:34:54;101001.44;;;22.80;100.00
59608;BME280;45426;44.726;10.390;2023-11-19T09:37:20;101004.31;;;23.43;93.04
59608;BME280;45426;44.726;10.390;2023-11-19T09:39:45;101005.28;;;24.57;90.96
59608;BME280;45426;44.726;10.390;2023-11-19T09:42:12;101003.44;;;22.76;87.22
59608;BME280;45426;44.726;10.390;2023-11-19T09:44:41;101004.28;;;23.47;84.04
59608;BME280;45426;44.726;10.390;2023-11-19T09:47:08;100986.84;;;22.76;84.63
59608;BME280;45426;44.726;10.390;2023-11-19T09:49:35;100994.97;;;23.71;89.84
59608;BME280;45426;44.726;10.390;2023-11-19T09:52:01;101011.09;;;22.07;89.21
59608;BME280;45426;44.726;10.390;2023-11-19T09:54:28;100993.34;;;26.20;82.76
59608;BME280;45426;44.726;10.390;2023-11-19T09:56:54;100991.53;;;26.94;76.49
59608;BME280;45426;44.726;10.390;2023-11-19T09:59:24;100977.00;;;27.19;74.97
59608;BME280;45426;44.726;10.390;2023-11-19T10:01:50;100990.75;;;26.53;71.55
59608;BME280;45426;44.726;10.390;2023-11-19T10:04:17;100991.97;;;26.32;68.03
59608;BME280;45426;44.726;10.390;2023-11-19T10:06:44;100986.97;;;26.00;66.40
59608;BME280;45426;44.726;10.390;2023-11-19T10:09:12;100994.94;;;20.53;77.59
59608;BME280;45426;44.726;10.390;2023-11-19T10:11:37;101005.31;;;16.41;100.00
59608;BME280;45426;44.726;10.390;2023-11-19T10:14:03;101004.28;;;16.30;100.00
59608;BME280;45426;44.726;10.390;2023-11-19T10:16:29;100990.09;;;16.08;100.00
59608;BME280;45426;44.726;10.390;2023-11-19T10:18:57;100988.84;;;16.77;100.00
59608;BME280;45426;44.726;10.390;2023-11-19T10:21:24;100989.50;;;17.09;100.00
59608;BME280;45426;44.726;10.390;2023-11-19T10:23:54;101003.38;;;17.16;100.00
59608;BME280;45426;44.726;10.390;2023-11-19T10:26:22;100989.19;;;16.56;100.00
59608;BME280;45426;44.726;10.390;2023-11-19T10:28:47;100991.00;;;16.48;100.00
59608;BME280;45426;44.726;10.390;2023-11-19T10:31:18;100993.66;;;17.42;100.00
59608;BME280;45426;44.726;10.390;2023-11-19T10:33:44;100988.75;;;16.89;100.00
59608;BME280;45426;44.726;10.390;2023-11-19T10:36:11;100986.03;;;16.73;100.00
59608;BME280;45426;44.726;10.390;2023-11-19T10:38:38;100975.19;;;16.61;100.00
59608;BME280;45426;44.726;10.390;2023-11-19T10:41:03;100971.09;;;17.10;100.00
59608;BME280;45426;44.726;10.390;2023-11-19T10:43:31;100976.22;;;16.92;100.00
59608;BME280;45426;44.726;10.390;2023-11-19T10:46:13;100969.13;;;16.52;100.00
59608;BME280;45426;44.726;10.390;2023-11-19T10:48:39;100966.06;;;16.57;100.00
59608;BME280;45426;44.726;10.390;2023-11-19T10:51:07;100956.56;;;16.50;100.00
59608;BME280;45426;44.726;10.390;2023-11-19T10:53:37;100956.38;;;16.24;100.00
59608;BME280;45426;44.726;10.390;2023-11-19T10:56:06;100940.00;;;15.00;100.00
59608;BME280;45426;44.726;10.390;2023-11-19T10:58:35;100945.34;;;16.04;100.00
59608;BME280;45426;44.726;10.390;2023-11-19T11:01:09;100936.66;;;15.07;100.00
59608;BME280;45426;44.726;10.390;2023-11-19T11:03:39;100939.75;;;16.17;100.00
59608;BME280;45426;44.726;10.390;2023-11-19T11:06:06;100934.38;;;15.09;100.00
59608;BME280;45426;44.726;10.390;2023-11-19T11:08:32;100908.09;;;15.52;100.00
59608;BME280;45426;44.726;10.390;2023-11-19T11:11:01;100925.31;;;15.68;100.00
59608;BME280;45426;44.726;10.390;2023-11-19T11:13:27;100915.50;;;15.99;100.00
59608;BME280;45426;44.726;10.390;2023-11-19T11:15:55;100905.38;;;16.39;100.00
59608;BME280;45426;44.726;10.390;2023-11-19T11:18:23;100918.09;;;15.60;100.00
59608;BME280;45426;44.726;10.390;2023-11-19T11:20:52;100907.81;;;15.57;100.00
59608;BME280;45426;44.726;10.390;2023-11-19T11:28:59;100899.78;;;17.36;100.00
59608;BME280;45426;44.726;10.390;2023-11-19T11:37:16;100890.69;;;15.60;100.00
59608;BME280;45426;44.726;10.390;2023-11-19T11:39:43;100896.59;;;15.94;100.00
59608;BME280;45426;44.726;10.390;2023-11-19T11:50:22;100856.28;;;16.53;100.00
59608;BME280;45426;44.726;10.390;2023-11-19T11:55:26;100842.97;;;16.94;100.00
59608;BME280;45426;44.726;10.390;2023-11-19T11:57:53;100847.97;;;17.35;100.00
59608;BME280;45426;44.726;10.390;2023-11-19T12:00:32;100841.81;;;16.95;100.00
59608;BME280;45426;44.726;10.390;2023-11-19T12:03:01;100837.81;;;17.39;100.00
59608;BME280;45426;44.726;10.390;2023-11-19T12:05:27;100849.97;;;15.59;100.00
59608;BME280;45426;44.726;10.390;2023-11-19T12:08:06;100838.53;;;15.72;100.00
59608;BME280;45426;44.726;10.390;2023-11-19T12:10:36;100833.63;;;16.56;100.00
59608;BME280;45426;44.726;10.390;2023-11-19T12:13:05;100832.22;;;16.43;100.00
59608;BME280;45426;44.726;10.390;2023-11-19T12:15:32;100829.16;;;16.67;100.00
59608;BME280;45426;44.726;10.390;2023-11-19T12:17:58;100829.75;;;17.00;100.00
59608;BME280;45426;44.726;10.390;2023-11-19T12:20:25;100825.47;;;17.25;100.00
59608;BME280;45426;44.726;10.390;2023-11-19T12:22:52;100827.81;;;16.81;100.00
59608;BME280;45426;44.726;10.390;2023-11-19T12:25:19;100828.88;;;16.96;100.00
59608;BME280;45426;44.726;10.390;2023-11-19T12:27:50;100826.25;;;16.80;100.00
59608;BME280;45426;44.726;10.390;2023-11-19T12:30:25;100821.41;;;16.93;100.00
59608;BME280;45426;44.726;10.390;2023-11-19T12:32:52;100814.31;;;17.15;100.00
59608;BME280;45426;44.726;10.390;2023-11-19T12:35:21;100815.59;;;16.98;100.00
59608;BME280;45426;44.726;10.390;2023-11-19T12:37:50;100803.31;;;17.15;100.00
59608;BME280;45426;44.726;10.390;2023-11-19T12:40:20;100805.19;;;17.87;100.00
59608;BME280;45426;44.726;10.390;2023-11-19T12:42:50;100805.28;;;17.94;100.00
59608;BME280;45426;44.726;10.390;2023-11-19T12:45:17;100795.56;;;17.74;100.00
59608;BME280;45426;44.726;10.390;2023-11-19T12:47:43;100792.22;;;17.31;100.00
59608;BME280;45426;44.726;10.390;2023-11-19T12:50:10;100791.34;;;17.53;100.00
59608;BME280;45426;44.726;10.390;2023-11-19T12:52:37;100783.31;;;17.68;100.00
59608;BME280;45426;44.726;10.390;2023-11-19T12:55:04;100780.84;;;17.32;100.00